Vremea mâine în Seini - Romania

Vrei sa afli care e starea vremii acum in Maramures - Romania? Dorim sa iti furnizam starea vremii pentru Maramures - Romania. Starea vremii Maramures - Romania pentru astazi.

Vremea mâine în Seini

Temperatura minimă:
9.4 °C

Temperatura maximă:
21.9 °C

Mâine va fi: Patchy rain nearby
Precipitații: 84 %
Umiditate: 64%
Viteza maximă vânt mâine:
12.2 km/h

Evoluția vremii in Seini pe ore mâine

Ora: 03:00
Temperatura: °C
Sansa de precipitatii: %
Ora Descriere Temp Se simte Precipitatii Umiditate Vant
00:00Senin12.4°12.2°0%62%E 6.1 KM/H
01:00Senin11.9°11.7°0%64%E 5.8 KM/H
02:00Senin11.6°11.3°0%65%ESE 6.1 KM/H
03:00Senin11.1°10.7°0%67%ESE 6.1 KM/H
04:00Senin10.8°10.2°0%68%ESE 6.8 KM/H
05:00Senin10°10.1°0%72%SE 4 KM/H
06:00Senin9.4°8.8°0%74%ESE 5.8 KM/H
07:00Senin10.1°9.8°0%75%ESE 5.4 KM/H
08:00Senin14.7°15.4°0%68%S 4 KM/H
09:00Senin17.1°17.1°0%61%SSW 4.3 KM/H
10:00Senin18.7°18.7°0%56%SSW 4.7 KM/H
11:00Senin20°20°0%52%SW 6.8 KM/H
12:00Senin20.9°20.9°0%51%WSW 8.6 KM/H
13:00Senin21.6°21.6°0%50%WSW 9.4 KM/H
14:00Patchy rain nearby21.8°21.8°100%52%WSW 9.4 KM/H
15:00Patchy rain nearby21.9°21.9°100%53%WSW 11.9 KM/H
16:00Patchy rain nearby21.1°21.1°100%58%W 12.2 KM/H
17:00Patchy rain nearby21.1°21.1°100%58%W 9.7 KM/H
18:00Patchy rain nearby19.2°19.2°100%67%WNW 7.2 KM/H
19:00Patchy rain nearby19.7°19.8°100%68%WSW 2.9 KM/H
20:00Patchy rain nearby15.5°15.5°100%72%S 1.1 KM/H
21:00Senin14.3°14.9°0%74%E 4 KM/H
22:00Senin13.1°13.2°0%78%E 5 KM/H
23:00Senin12.5°12.4°0%80%E 5.8 KM/H




tutorials